createdAt,value
2023-03-22T00:07:02.328Z,21.70
2023-03-22T00:17:04.080Z,17.10
2023-03-22T00:27:05.668Z,23.53
2023-03-22T00:37:08.007Z,23.80
2023-03-22T00:47:09.632Z,30.63
2023-03-22T00:57:12.930Z,61.93
2023-03-22T01:07:17.866Z,25.47
2023-03-22T01:17:19.491Z,20.70
2023-03-22T01:27:21.124Z,24.27
2023-03-22T01:37:25.401Z,17.07
2023-03-22T01:47:35.287Z,15.00
2023-03-22T01:57:37.563Z,15.07
2023-03-22T02:07:42.113Z,14.10
2023-03-22T02:18:01.625Z,13.83
2023-03-22T02:28:21.952Z,13.20
2023-03-22T02:38:45.802Z,13.90
2023-03-22T02:48:57.379Z,14.93
2023-03-22T02:59:02.755Z,12.93
2023-03-22T03:09:05.294Z,12.60
2023-03-22T03:19:32.048Z,12.13
2023-03-22T03:30:04.284Z,9.57
2023-03-22T03:40:16.706Z,12.13
2023-03-22T03:50:18.493Z,12.20
2023-03-22T04:00:20.303Z,12.53
2023-03-22T04:10:21.901Z,13.00
2023-03-22T04:20:23.704Z,10.40
2023-03-22T04:30:27.359Z,11.37
2023-03-22T04:40:35.211Z,11.80
2023-03-22T04:50:37.665Z,11.27
2023-03-22T05:00:42.318Z,12.27
2023-03-22T05:10:44.498Z,11.37
2023-03-22T05:20:47.550Z,12.80
2023-03-22T05:30:49.622Z,15.63
2023-03-22T05:40:51.914Z,12.63
2023-03-22T05:50:53.520Z,13.20
2023-03-22T06:00:55.622Z,10.67
2023-03-22T06:10:57.281Z,13.87
2023-03-22T06:20:59.058Z,16.83
2023-03-22T06:31:09.545Z,12.07
2023-03-22T06:41:11.467Z,13.53
2023-03-22T06:51:13.060Z,18.43
2023-03-22T07:01:14.954Z,33.57
2023-03-22T07:11:16.669Z,20.60
2023-03-22T07:21:18.303Z,9.40
2023-03-22T07:31:19.962Z,7.07
2023-03-22T07:41:23.995Z,7.20
2023-03-22T07:51:25.782Z,6.30
2023-03-22T08:01:27.429Z,9.33
2023-03-22T08:11:29.057Z,6.03
2023-03-22T08:21:30.782Z,4.97
2023-03-22T08:31:32.461Z,3.70
2023-03-22T08:41:34.818Z,4.80
2023-03-22T08:51:36.854Z,4.13
2023-03-22T09:01:38.745Z,3.60
2023-03-22T09:11:42.585Z,4.17
2023-03-22T09:21:44.241Z,3.67
2023-03-22T09:31:48.829Z,3.83
2023-03-22T09:41:57.440Z,4.93
2023-03-22T09:51:59.335Z,4.07
2023-03-22T10:02:05.248Z,4.63
2023-03-22T10:12:18.356Z,4.80
2023-03-22T10:22:25.129Z,3.33
2023-03-22T10:32:51.082Z,3.17
2023-03-22T10:43:03.580Z,2.73
2023-03-22T11:01:51.435Z,5.97
2023-03-22T11:11:58.610Z,5.70
2023-03-22T11:22:01.310Z,2.50
2023-03-22T11:32:02.963Z,2.83
2023-03-22T11:42:06.452Z,2.67
2023-03-22T11:52:12.589Z,2.50
2023-03-22T12:09:19.220Z,1.73
2023-03-22T12:19:23.696Z,3.03
2023-03-22T12:29:27.032Z,2.30
2023-03-22T12:39:40.817Z,5.53
2023-03-22T12:50:14.493Z,2.67
2023-03-22T13:00:17.613Z,1.50
2023-03-22T13:10:31.749Z,1.20
2023-03-22T13:20:33.970Z,4.80
2023-03-22T13:30:36.921Z,4.93
2023-03-22T13:41:18.254Z,1.13
2023-03-22T13:51:31.011Z,1.77
2023-03-22T14:01:36.849Z,3.17
2023-03-22T14:11:52.431Z,2.10
